sensor_id;sensor_type;location;lat;lon;timestamp;P1;durP1;ratioP1;P2;durP2;ratioP2
5608;SDS011;2826;51.354;9.588;2022-07-06T00:00:04;4.20;;;1.80;;
5608;SDS011;2826;51.354;9.588;2022-07-06T00:02:31;7.17;;;1.80;;
5608;SDS011;2826;51.354;9.588;2022-07-06T00:04:58;3.10;;;1.80;;
5608;SDS011;2826;51.354;9.588;2022-07-06T00:07:25;10.17;;;1.70;;
5608;SDS011;2826;51.354;9.588;2022-07-06T00:09:52;3.43;;;1.60;;
5608;SDS011;2826;51.354;9.588;2022-07-06T00:12:20;2.27;;;1.50;;
5608;SDS011;2826;51.354;9.588;2022-07-06T00:14:46;2.63;;;1.70;;
5608;SDS011;2826;51.354;9.588;2022-07-06T00:17:13;5.40;;;1.60;;
5608;SDS011;2826;51.354;9.588;2022-07-06T00:19:40;4.10;;;1.60;;
5608;SDS011;2826;51.354;9.588;2022-07-06T00:22:07;3.60;;;1.50;;
5608;SDS011;2826;51.354;9.588;2022-07-06T00:24:34;6.33;;;1.90;;
5608;SDS011;2826;51.354;9.588;2022-07-06T00:27:01;3.13;;;1.93;;
5608;SDS011;2826;51.354;9.588;2022-07-06T00:29:29;4.30;;;1.60;;
5608;SDS011;2826;51.354;9.588;2022-07-06T00:31:56;5.60;;;1.83;;
5608;SDS011;2826;51.354;9.588;2022-07-06T00:34:23;6.37;;;1.50;;
5608;SDS011;2826;51.354;9.588;2022-07-06T00:36:49;3.63;;;1.90;;
5608;SDS011;2826;51.354;9.588;2022-07-06T00:39:16;2.73;;;1.60;;
5608;SDS011;2826;51.354;9.588;2022-07-06T00:41:44;5.70;;;2.37;;
5608;SDS011;2826;51.354;9.588;2022-07-06T00:44:11;3.67;;;1.80;;
5608;SDS011;2826;51.354;9.588;2022-07-06T00:46:39;2.40;;;1.73;;
5608;SDS011;2826;51.354;9.588;2022-07-06T00:49:06;2.80;;;1.80;;
5608;SDS011;2826;51.354;9.588;2022-07-06T00:51:54;5.43;;;1.90;;
5608;SDS011;2826;51.354;9.588;2022-07-06T00:54:21;3.77;;;1.80;;
5608;SDS011;2826;51.354;9.588;2022-07-06T00:56:48;3.30;;;1.50;;
5608;SDS011;2826;51.354;9.588;2022-07-06T00:59:14;4.63;;;1.70;;
5608;SDS011;2826;51.354;9.588;2022-07-06T01:01:43;3.57;;;1.60;;
5608;SDS011;2826;51.354;9.588;2022-07-06T01:04:10;4.27;;;1.73;;
5608;SDS011;2826;51.354;9.588;2022-07-06T01:06:36;3.00;;;1.70;;
5608;SDS011;2826;51.354;9.588;2022-07-06T01:09:04;2.30;;;2.10;;
5608;SDS011;2826;51.354;9.588;2022-07-06T01:11:31;4.77;;;1.93;;
5608;SDS011;2826;51.354;9.588;2022-07-06T01:14:00;3.77;;;1.80;;
5608;SDS011;2826;51.354;9.588;2022-07-06T01:16:27;4.60;;;1.70;;
5608;SDS011;2826;51.354;9.588;2022-07-06T01:18:55;4.73;;;1.90;;
5608;SDS011;2826;51.354;9.588;2022-07-06T01:21:24;1.97;;;1.77;;
5608;SDS011;2826;51.354;9.588;2022-07-06T01:23:50;2.00;;;1.63;;
5608;SDS011;2826;51.354;9.588;2022-07-06T01:26:19;3.43;;;1.80;;
5608;SDS011;2826;51.354;9.588;2022-07-06T01:28:47;8.73;;;1.73;;
5608;SDS011;2826;51.354;9.588;2022-07-06T01:31:17;5.00;;;1.93;;
5608;SDS011;2826;51.354;9.588;2022-07-06T01:33:45;2.90;;;1.67;;
5608;SDS011;2826;51.354;9.588;2022-07-06T01:36:12;4.73;;;2.47;;
5608;SDS011;2826;51.354;9.588;2022-07-06T01:38:44;3.03;;;2.00;;
5608;SDS011;2826;51.354;9.588;2022-07-06T01:41:11;4.07;;;1.80;;
5608;SDS011;2826;51.354;9.588;2022-07-06T01:43:38;7.27;;;2.00;;
5608;SDS011;2826;51.354;9.588;2022-07-06T01:46:06;8.73;;;2.47;;
5608;SDS011;2826;51.354;9.588;2022-07-06T01:48:32;8.90;;;2.20;;
5608;SDS011;2826;51.354;9.588;2022-07-06T01:50:59;3.77;;;2.50;;
5608;SDS011;2826;51.354;9.588;2022-07-06T01:53:27;6.83;;;2.40;;
5608;SDS011;2826;51.354;9.588;2022-07-06T01:55:55;5.37;;;2.53;;
5608;SDS011;2826;51.354;9.588;2022-07-06T01:58:22;4.20;;;2.13;;
5608;SDS011;2826;51.354;9.588;2022-07-06T02:00:49;4.60;;;2.37;;
5608;SDS011;2826;51.354;9.588;2022-07-06T02:03:15;3.00;;;2.33;;
5608;SDS011;2826;51.354;9.588;2022-07-06T02:05:43;3.20;;;2.20;;
5608;SDS011;2826;51.354;9.588;2022-07-06T02:08:09;7.40;;;2.20;;
5608;SDS011;2826;51.354;9.588;2022-07-06T02:10:36;4.60;;;2.50;;
5608;SDS011;2826;51.354;9.588;2022-07-06T02:13:04;4.03;;;2.20;;
5608;SDS011;2826;51.354;9.588;2022-07-06T02:15:31;7.33;;;2.20;;
5608;SDS011;2826;51.354;9.588;2022-07-06T02:17:58;4.07;;;2.27;;
5608;SDS011;2826;51.354;9.588;2022-07-06T02:20:24;4.17;;;2.20;;
5608;SDS011;2826;51.354;9.588;2022-07-06T02:22:51;2.60;;;1.90;;
5608;SDS011;2826;51.354;9.588;2022-07-06T02:25:18;3.47;;;1.87;;
5608;SDS011;2826;51.354;9.588;2022-07-06T02:27:45;6.47;;;2.43;;
5608;SDS011;2826;51.354;9.588;2022-07-06T02:30:14;2.27;;;1.90;;
5608;SDS011;2826;51.354;9.588;2022-07-06T02:32:41;8.40;;;2.40;;
5608;SDS011;2826;51.354;9.588;2022-07-06T02:35:09;3.63;;;2.00;;
5608;SDS011;2826;51.354;9.588;2022-07-06T02:37:37;4.60;;;2.10;;
5608;SDS011;2826;51.354;9.588;2022-07-06T02:40:05;4.37;;;2.20;;
5608;SDS011;2826;51.354;9.588;2022-07-06T02:42:32;10.90;;;2.67;;
5608;SDS011;2826;51.354;9.588;2022-07-06T02:45:00;2.97;;;1.90;;
5608;SDS011;2826;51.354;9.588;2022-07-06T02:47:29;4.80;;;1.90;;
5608;SDS011;2826;51.354;9.588;2022-07-06T02:49:56;3.37;;;2.30;;
5608;SDS011;2826;51.354;9.588;2022-07-06T02:52:23;5.80;;;2.80;;
5608;SDS011;2826;51.354;9.588;2022-07-06T02:54:50;10.80;;;2.40;;
5608;SDS011;2826;51.354;9.588;2022-07-06T02:57:18;3.43;;;1.83;;
5608;SDS011;2826;51.354;9.588;2022-07-06T02:59:45;3.03;;;2.13;;
5608;SDS011;2826;51.354;9.588;2022-07-06T03:02:15;7.43;;;2.50;;
5608;SDS011;2826;51.354;9.588;2022-07-06T03:04:44;6.40;;;2.67;;
5608;SDS011;2826;51.354;9.588;2022-07-06T03:07:12;4.37;;;2.20;;
5608;SDS011;2826;51.354;9.588;2022-07-06T03:09:39;5.10;;;2.23;;
5608;SDS011;2826;51.354;9.588;2022-07-06T03:12:07;8.77;;;2.23;;
5608;SDS011;2826;51.354;9.588;2022-07-06T03:14:35;5.90;;;3.00;;
5608;SDS011;2826;51.354;9.588;2022-07-06T03:17:02;2.53;;;2.13;;
5608;SDS011;2826;51.354;9.588;2022-07-06T03:19:29;7.10;;;2.50;;
5608;SDS011;2826;51.354;9.588;2022-07-06T03:21:58;3.80;;;2.40;;
5608;SDS011;2826;51.354;9.588;2022-07-06T03:24:25;4.23;;;2.00;;
5608;SDS011;2826;51.354;9.588;2022-07-06T03:26:51;8.90;;;2.57;;
5608;SDS011;2826;51.354;9.588;2022-07-06T03:29:19;4.70;;;2.30;;
5608;SDS011;2826;51.354;9.588;2022-07-06T03:31:47;4.00;;;2.50;;
5608;SDS011;2826;51.354;9.588;2022-07-06T03:34:14;8.10;;;2.50;;
5608;SDS011;2826;51.354;9.588;2022-07-06T03:36:41;3.73;;;2.00;;
5608;SDS011;2826;51.354;9.588;2022-07-06T03:39:10;5.53;;;2.30;;
5608;SDS011;2826;51.354;9.588;2022-07-06T03:41:37;4.47;;;2.37;;
5608;SDS011;2826;51.354;9.588;2022-07-06T03:44:05;7.17;;;2.47;;
5608;SDS011;2826;51.354;9.588;2022-07-06T03:46:32;3.80;;;2.10;;
5608;SDS011;2826;51.354;9.588;2022-07-06T03:49:00;3.87;;;2.10;;
5608;SDS011;2826;51.354;9.588;2022-07-06T03:51:27;6.50;;;2.30;;
5608;SDS011;2826;51.354;9.588;2022-07-06T03:53:54;5.50;;;2.13;;
5608;SDS011;2826;51.354;9.588;2022-07-06T03:56:22;6.93;;;2.40;;
5608;SDS011;2826;51.354;9.588;2022-07-06T03:59:02;4.53;;;2.10;;
5608;SDS011;2826;51.354;9.588;2022-07-06T04:01:33;3.37;;;1.90;;
5608;SDS011;2826;51.354;9.588;2022-07-06T04:04:00;4.57;;;1.80;;
5608;SDS011;2826;51.354;9.588;2022-07-06T04:06:29;5.37;;;2.40;;
5608;SDS011;2826;51.354;9.588;2022-07-06T04:08:56;3.67;;;2.10;;
5608;SDS011;2826;51.354;9.588;2022-07-06T04:11:24;10.00;;;2.73;;
5608;SDS011;2826;51.354;9.588;2022-07-06T04:13:51;4.53;;;2.10;;
5608;SDS011;2826;51.354;9.588;2022-07-06T04:16:21;3.93;;;2.53;;
5608;SDS011;2826;51.354;9.588;2022-07-06T04:18:48;6.73;;;2.10;;
5608;SDS011;2826;51.354;9.588;2022-07-06T04:21:15;4.57;;;2.33;;
5608;SDS011;2826;51.354;9.588;2022-07-06T04:23:42;3.83;;;1.90;;
5608;SDS011;2826;51.354;9.588;2022-07-06T04:26:10;2.80;;;2.17;;
5608;SDS011;2826;51.354;9.588;2022-07-06T04:28:39;3.77;;;2.20;;
5608;SDS011;2826;51.354;9.588;2022-07-06T04:31:06;6.63;;;2.23;;
5608;SDS011;2826;51.354;9.588;2022-07-06T04:33:33;7.23;;;2.03;;
5608;SDS011;2826;51.354;9.588;2022-07-06T04:36:00;3.70;;;1.70;;
5608;SDS011;2826;51.354;9.588;2022-07-06T04:38:35;4.50;;;2.17;;
5608;SDS011;2826;51.354;9.588;2022-07-06T04:41:05;9.00;;;2.10;;
5608;SDS011;2826;51.354;9.588;2022-07-06T04:43:32;9.63;;;2.20;;
5608;SDS011;2826;51.354;9.588;2022-07-06T04:46:00;3.93;;;2.07;;
5608;SDS011;2826;51.354;9.588;2022-07-06T04:48:28;2.20;;;2.00;;
5608;SDS011;2826;51.354;9.588;2022-07-06T04:50:58;3.50;;;2.10;;
5608;SDS011;2826;51.354;9.588;2022-07-06T04:53:27;7.40;;;2.20;;
5608;SDS011;2826;51.354;9.588;2022-07-06T04:55:55;12.73;;;2.30;;
5608;SDS011;2826;51.354;9.588;2022-07-06T04:58:23;5.13;;;2.40;;
5608;SDS011;2826;51.354;9.588;2022-07-06T05:00:50;5.13;;;2.60;;
5608;SDS011;2826;51.354;9.588;2022-07-06T05:03:18;3.23;;;2.43;;
5608;SDS011;2826;51.354;9.588;2022-07-06T05:05:45;3.37;;;2.37;;
5608;SDS011;2826;51.354;9.588;2022-07-06T05:08:12;4.00;;;2.63;;
5608;SDS011;2826;51.354;9.588;2022-07-06T05:10:40;6.67;;;2.90;;
5608;SDS011;2826;51.354;9.588;2022-07-06T05:13:07;7.63;;;2.97;;
5608;SDS011;2826;51.354;9.588;2022-07-06T05:15:34;3.33;;;2.57;;
5608;SDS011;2826;51.354;9.588;2022-07-06T05:18:00;3.37;;;2.40;;
5608;SDS011;2826;51.354;9.588;2022-07-06T05:20:29;4.70;;;2.80;;
5608;SDS011;2826;51.354;9.588;2022-07-06T05:22:56;4.37;;;2.80;;
5608;SDS011;2826;51.354;9.588;2022-07-06T05:25:28;4.90;;;2.87;;
5608;SDS011;2826;51.354;9.588;2022-07-06T05:27:56;4.83;;;3.13;;
5608;SDS011;2826;51.354;9.588;2022-07-06T05:30:23;14.63;;;3.00;;
5608;SDS011;2826;51.354;9.588;2022-07-06T05:32:50;9.53;;;2.50;;
5608;SDS011;2826;51.354;9.588;2022-07-06T05:35:17;6.40;;;2.47;;
5608;SDS011;2826;51.354;9.588;2022-07-06T05:37:46;6.20;;;2.57;;
5608;SDS011;2826;51.354;9.588;2022-07-06T05:40:13;5.53;;;2.83;;
5608;SDS011;2826;51.354;9.588;2022-07-06T05:42:39;4.20;;;2.87;;
5608;SDS011;2826;51.354;9.588;2022-07-06T05:45:07;4.13;;;2.60;;
5608;SDS011;2826;51.354;9.588;2022-07-06T05:47:34;8.30;;;3.00;;
5608;SDS011;2826;51.354;9.588;2022-07-06T05:50:19;3.90;;;2.80;;
5608;SDS011;2826;51.354;9.588;2022-07-06T05:52:58;4.83;;;3.23;;
5608;SDS011;2826;51.354;9.588;2022-07-06T05:55:28;4.40;;;2.80;;
5608;SDS011;2826;51.354;9.588;2022-07-06T05:57:57;11.40;;;3.30;;
5608;SDS011;2826;51.354;9.588;2022-07-06T06:00:27;3.60;;;2.70;;
5608;SDS011;2826;51.354;9.588;2022-07-06T06:02:59;4.90;;;2.87;;
5608;SDS011;2826;51.354;9.588;2022-07-06T06:05:26;5.17;;;3.00;;
5608;SDS011;2826;51.354;9.588;2022-07-06T06:07:59;6.47;;;2.83;;
5608;SDS011;2826;51.354;9.588;2022-07-06T06:10:27;8.80;;;3.60;;
5608;SDS011;2826;51.354;9.588;2022-07-06T06:12:58;5.20;;;2.90;;
5608;SDS011;2826;51.354;9.588;2022-07-06T06:15:26;4.17;;;2.73;;
5608;SDS011;2826;51.354;9.588;2022-07-06T06:17:53;9.30;;;3.53;;
5608;SDS011;2826;51.354;9.588;2022-07-06T06:20:19;6.03;;;3.13;;
5608;SDS011;2826;51.354;9.588;2022-07-06T06:22:47;3.80;;;3.17;;
5608;SDS011;2826;51.354;9.588;2022-07-06T06:25:17;6.27;;;3.27;;
5608;SDS011;2826;51.354;9.588;2022-07-06T06:27:45;6.07;;;3.20;;
5608;SDS011;2826;51.354;9.588;2022-07-06T06:30:12;6.83;;;3.30;;
5608;SDS011;2826;51.354;9.588;2022-07-06T06:32:40;3.87;;;3.10;;
5608;SDS011;2826;51.354;9.588;2022-07-06T06:35:07;11.47;;;3.50;;
5608;SDS011;2826;51.354;9.588;2022-07-06T06:37:34;3.40;;;3.10;;
5608;SDS011;2826;51.354;9.588;2022-07-06T06:40:02;5.50;;;3.10;;
5608;SDS011;2826;51.354;9.588;2022-07-06T06:42:30;7.10;;;3.13;;
5608;SDS011;2826;51.354;9.588;2022-07-06T06:44:58;7.23;;;3.17;;
5608;SDS011;2826;51.354;9.588;2022-07-06T06:47:25;5.50;;;2.57;;
5608;SDS011;2826;51.354;9.588;2022-07-06T06:49:51;4.60;;;2.50;;
5608;SDS011;2826;51.354;9.588;2022-07-06T06:52:18;4.20;;;2.40;;
5608;SDS011;2826;51.354;9.588;2022-07-06T06:54:45;6.10;;;2.57;;
5608;SDS011;2826;51.354;9.588;2022-07-06T06:57:12;8.40;;;3.00;;
5608;SDS011;2826;51.354;9.588;2022-07-06T06:59:40;11.23;;;2.53;;
5608;SDS011;2826;51.354;9.588;2022-07-06T07:02:07;4.30;;;2.23;;
5608;SDS011;2826;51.354;9.588;2022-07-06T07:04:33;5.00;;;2.67;;
5608;SDS011;2826;51.354;9.588;2022-07-06T07:07:00;8.07;;;2.40;;
5608;SDS011;2826;51.354;9.588;2022-07-06T07:09:27;5.63;;;2.60;;
5608;SDS011;2826;51.354;9.588;2022-07-06T07:11:53;4.33;;;2.10;;
5608;SDS011;2826;51.354;9.588;2022-07-06T07:14:21;5.43;;;2.67;;
5608;SDS011;2826;51.354;9.588;2022-07-06T07:16:49;2.90;;;2.20;;
5608;SDS011;2826;51.354;9.588;2022-07-06T07:19:15;2.70;;;1.73;;
5608;SDS011;2826;51.354;9.588;2022-07-06T07:21:42;7.90;;;2.03;;
5608;SDS011;2826;51.354;9.588;2022-07-06T07:24:09;18.93;;;2.33;;
5608;SDS011;2826;51.354;9.588;2022-07-06T07:26:36;2.17;;;1.97;;
5608;SDS011;2826;51.354;9.588;2022-07-06T07:29:03;4.23;;;2.13;;
5608;SDS011;2826;51.354;9.588;2022-07-06T07:31:29;2.70;;;1.97;;
5608;SDS011;2826;51.354;9.588;2022-07-06T07:33:57;6.60;;;2.30;;
5608;SDS011;2826;51.354;9.588;2022-07-06T07:36:24;2.60;;;1.43;;
5608;SDS011;2826;51.354;9.588;2022-07-06T07:38:51;3.70;;;1.57;;
5608;SDS011;2826;51.354;9.588;2022-07-06T07:41:18;7.90;;;1.80;;
5608;SDS011;2826;51.354;9.588;2022-07-06T07:43:45;4.00;;;1.63;;
5608;SDS011;2826;51.354;9.588;2022-07-06T07:46:12;4.60;;;1.70;;
5608;SDS011;2826;51.354;9.588;2022-07-06T07:48:39;11.63;;;1.70;;
5608;SDS011;2826;51.354;9.588;2022-07-06T07:51:07;5.97;;;1.57;;
5608;SDS011;2826;51.354;9.588;2022-07-06T07:53:34;5.13;;;1.70;;
5608;SDS011;2826;51.354;9.588;2022-07-06T07:56:01;3.83;;;1.47;;
5608;SDS011;2826;51.354;9.588;2022-07-06T07:58:28;3.73;;;1.57;;
5608;SDS011;2826;51.354;9.588;2022-07-06T08:00:54;4.50;;;1.80;;
5608;SDS011;2826;51.354;9.588;2022-07-06T08:03:22;2.67;;;1.40;;
5608;SDS011;2826;51.354;9.588;2022-07-06T08:05:49;5.50;;;1.70;;
5608;SDS011;2826;51.354;9.588;2022-07-06T08:08:17;4.10;;;1.53;;
5608;SDS011;2826;51.354;9.588;2022-07-06T08:10:44;1.80;;;1.50;;
5608;SDS011;2826;51.354;9.588;2022-07-06T08:13:11;3.90;;;1.77;;
5608;SDS011;2826;51.354;9.588;2022-07-06T08:15:40;2.20;;;1.30;;
5608;SDS011;2826;51.354;9.588;2022-07-06T08:18:07;2.13;;;1.43;;
5608;SDS011;2826;51.354;9.588;2022-07-06T08:20:34;4.23;;;1.53;;
5608;SDS011;2826;51.354;9.588;2022-07-06T08:23:01;2.60;;;1.27;;
5608;SDS011;2826;51.354;9.588;2022-07-06T08:25:29;3.57;;;1.57;;
5608;SDS011;2826;51.354;9.588;2022-07-06T08:27:56;2.37;;;1.20;;
5608;SDS011;2826;51.354;9.588;2022-07-06T08:30:23;1.53;;;1.30;;
5608;SDS011;2826;51.354;9.588;2022-07-06T08:32:50;12.87;;;2.20;;
5608;SDS011;2826;51.354;9.588;2022-07-06T08:35:17;2.10;;;1.20;;
5608;SDS011;2826;51.354;9.588;2022-07-06T08:37:44;3.50;;;1.43;;
5608;SDS011;2826;51.354;9.588;2022-07-06T08:40:11;2.13;;;1.20;;
5608;SDS011;2826;51.354;9.588;2022-07-06T08:42:39;2.57;;;1.30;;
5608;SDS011;2826;51.354;9.588;2022-07-06T08:45:06;1.83;;;1.30;;
5608;SDS011;2826;51.354;9.588;2022-07-06T08:47:34;4.30;;;1.70;;
5608;SDS011;2826;51.354;9.588;2022-07-06T08:50:02;2.80;;;1.50;;
5608;SDS011;2826;51.354;9.588;2022-07-06T08:52:30;11.43;;;1.93;;
5608;SDS011;2826;51.354;9.588;2022-07-06T08:54:57;5.70;;;1.30;;
5608;SDS011;2826;51.354;9.588;2022-07-06T08:57:25;3.33;;;1.10;;
5608;SDS011;2826;51.354;9.588;2022-07-06T08:59:54;2.80;;;1.43;;
5608;SDS011;2826;51.354;9.588;2022-07-06T09:02:22;7.90;;;1.30;;
5608;SDS011;2826;51.354;9.588;2022-07-06T09:04:51;3.10;;;1.10;;
5608;SDS011;2826;51.354;9.588;2022-07-06T09:07:21;4.27;;;1.53;;
5608;SDS011;2826;51.354;9.588;2022-07-06T09:09:49;5.83;;;1.60;;
5608;SDS011;2826;51.354;9.588;2022-07-06T09:12:18;6.63;;;1.13;;
5608;SDS011;2826;51.354;9.588;2022-07-06T09:14:45;3.20;;;1.10;;
5608;SDS011;2826;51.354;9.588;2022-07-06T09:17:13;3.13;;;1.20;;
5608;SDS011;2826;51.354;9.588;2022-07-06T09:19:40;2.70;;;1.30;;
5608;SDS011;2826;51.354;9.588;2022-07-06T09:22:07;5.23;;;1.40;;
5608;SDS011;2826;51.354;9.588;2022-07-06T09:24:34;3.63;;;1.30;;
5608;SDS011;2826;51.354;9.588;2022-07-06T09:27:14;2.60;;;1.20;;
5608;SDS011;2826;51.354;9.588;2022-07-06T09:29:42;3.60;;;1.10;;
5608;SDS011;2826;51.354;9.588;2022-07-06T09:32:11;3.93;;;1.50;;
5608;SDS011;2826;51.354;9.588;2022-07-06T09:34:43;3.77;;;1.30;;
5608;SDS011;2826;51.354;9.588;2022-07-06T09:37:11;1.23;;;0.90;;
5608;SDS011;2826;51.354;9.588;2022-07-06T09:39:38;6.20;;;1.30;;
5608;SDS011;2826;51.354;9.588;2022-07-06T09:42:06;3.73;;;1.37;;
5608;SDS011;2826;51.354;9.588;2022-07-06T09:44:35;5.03;;;1.43;;
5608;SDS011;2826;51.354;9.588;2022-07-06T09:47:04;6.23;;;1.13;;
5608;SDS011;2826;51.354;9.588;2022-07-06T09:49:33;3.90;;;1.47;;
5608;SDS011;2826;51.354;9.588;2022-07-06T09:52:02;2.33;;;1.20;;
5608;SDS011;2826;51.354;9.588;2022-07-06T09:54:30;5.60;;;1.60;;
5608;SDS011;2826;51.354;9.588;2022-07-06T09:56:58;2.90;;;1.10;;
5608;SDS011;2826;51.354;9.588;2022-07-06T09:59:26;3.90;;;1.20;;
5608;SDS011;2826;51.354;9.588;2022-07-06T10:01:53;1.00;;;0.90;;
5608;SDS011;2826;51.354;9.588;2022-07-06T10:04:22;3.43;;;1.30;;
5608;SDS011;2826;51.354;9.588;2022-07-06T10:06:50;2.00;;;1.40;;
5608;SDS011;2826;51.354;9.588;2022-07-06T10:09:19;4.70;;;1.17;;
5608;SDS011;2826;51.354;9.588;2022-07-06T10:11:49;4.90;;;1.00;;
5608;SDS011;2826;51.354;9.588;2022-07-06T10:14:19;1.87;;;1.07;;
5608;SDS011;2826;51.354;9.588;2022-07-06T10:16:48;3.33;;;1.27;;
5608;SDS011;2826;51.354;9.588;2022-07-06T10:19:15;2.90;;;1.13;;
5608;SDS011;2826;51.354;9.588;2022-07-06T10:21:43;3.63;;;1.30;;
5608;SDS011;2826;51.354;9.588;2022-07-06T10:24:12;2.03;;;0.97;;
5608;SDS011;2826;51.354;9.588;2022-07-06T10:26:41;2.13;;;1.10;;
5608;SDS011;2826;51.354;9.588;2022-07-06T10:29:09;3.73;;;1.20;;
5608;SDS011;2826;51.354;9.588;2022-07-06T10:31:37;2.37;;;1.30;;
5608;SDS011;2826;51.354;9.588;2022-07-06T10:34:06;3.50;;;1.20;;
5608;SDS011;2826;51.354;9.588;2022-07-06T10:36:39;14.40;;;1.63;;
5608;SDS011;2826;51.354;9.588;2022-07-06T10:39:06;5.13;;;1.10;;
5608;SDS011;2826;51.354;9.588;2022-07-06T10:41:53;3.33;;;1.00;;
5608;SDS011;2826;51.354;9.588;2022-07-06T10:44:20;10.70;;;1.23;;
5608;SDS011;2826;51.354;9.588;2022-07-06T10:46:52;3.63;;;1.10;;
5608;SDS011;2826;51.354;9.588;2022-07-06T10:49:20;1.00;;;0.90;;
5608;SDS011;2826;51.354;9.588;2022-07-06T10:51:48;1.67;;;1.10;;
5608;SDS011;2826;51.354;9.588;2022-07-06T10:54:16;4.47;;;1.97;;
5608;SDS011;2826;51.354;9.588;2022-07-06T10:56:44;3.23;;;1.20;;
5608;SDS011;2826;51.354;9.588;2022-07-06T10:59:14;7.40;;;1.50;;
5608;SDS011;2826;51.354;9.588;2022-07-06T11:02:10;2.80;;;1.20;;
5608;SDS011;2826;51.354;9.588;2022-07-06T11:04:40;2.20;;;1.00;;
5608;SDS011;2826;51.354;9.588;2022-07-06T11:07:08;3.77;;;1.03;;
5608;SDS011;2826;51.354;9.588;2022-07-06T11:09:36;5.50;;;1.10;;
5608;SDS011;2826;51.354;9.588;2022-07-06T11:12:14;2.50;;;1.20;;
5608;SDS011;2826;51.354;9.588;2022-07-06T11:14:45;1.83;;;0.93;;
5608;SDS011;2826;51.354;9.588;2022-07-06T11:17:13;1.67;;;0.97;;
5608;SDS011;2826;51.354;9.588;2022-07-06T11:19:47;2.67;;;1.20;;
5608;SDS011;2826;51.354;9.588;2022-07-06T11:22:17;2.10;;;1.30;;
5608;SDS011;2826;51.354;9.588;2022-07-06T11:24:45;2.53;;;1.00;;
5608;SDS011;2826;51.354;9.588;2022-07-06T11:27:12;3.10;;;1.10;;
5608;SDS011;2826;51.354;9.588;2022-07-06T11:29:40;3.33;;;1.23;;
5608;SDS011;2826;51.354;9.588;2022-07-06T11:32:08;4.90;;;1.60;;
5608;SDS011;2826;51.354;9.588;2022-07-06T11:34:36;6.93;;;1.27;;
5608;SDS011;2826;51.354;9.588;2022-07-06T11:37:05;1.17;;;1.00;;
5608;SDS011;2826;51.354;9.588;2022-07-06T11:39:34;3.63;;;1.20;;
5608;SDS011;2826;51.354;9.588;2022-07-06T11:42:02;3.47;;;1.30;;
5608;SDS011;2826;51.354;9.588;2022-07-06T11:44:30;3.60;;;1.37;;
5608;SDS011;2826;51.354;9.588;2022-07-06T11:46:57;10.50;;;1.47;;
5608;SDS011;2826;51.354;9.588;2022-07-06T11:49:27;2.90;;;1.40;;
5608;SDS011;2826;51.354;9.588;2022-07-06T11:51:55;7.20;;;1.50;;
5608;SDS011;2826;51.354;9.588;2022-07-06T11:54:22;14.57;;;1.70;;
5608;SDS011;2826;51.354;9.588;2022-07-06T11:56:50;2.93;;;1.10;;
5608;SDS011;2826;51.354;9.588;2022-07-06T11:59:22;6.30;;;2.20;;
5608;SDS011;2826;51.354;9.588;2022-07-06T12:01:58;1.43;;;1.03;;
5608;SDS011;2826;51.354;9.588;2022-07-06T12:04:27;5.67;;;1.57;;
5608;SDS011;2826;51.354;9.588;2022-07-06T12:06:54;5.27;;;2.90;;
5608;SDS011;2826;51.354;9.588;2022-07-06T12:09:21;9.80;;;3.60;;
5608;SDS011;2826;51.354;9.588;2022-07-06T12:11:49;4.80;;;1.17;;
5608;SDS011;2826;51.354;9.588;2022-07-06T12:14:16;9.87;;;4.63;;
5608;SDS011;2826;51.354;9.588;2022-07-06T12:16:45;3.77;;;1.97;;
5608;SDS011;2826;51.354;9.588;2022-07-06T12:19:13;31.77;;;1.80;;
5608;SDS011;2826;51.354;9.588;2022-07-06T12:21:46;24.77;;;2.23;;
5608;SDS011;2826;51.354;9.588;2022-07-06T12:24:18;12.80;;;1.20;;
5608;SDS011;2826;51.354;9.588;2022-07-06T12:26:46;11.10;;;1.30;;
5608;SDS011;2826;51.354;9.588;2022-07-06T12:29:14;9.83;;;1.40;;
5608;SDS011;2826;51.354;9.588;2022-07-06T12:31:42;14.20;;;2.90;;
5608;SDS011;2826;51.354;9.588;2022-07-06T12:34:14;16.27;;;1.17;;
5608;SDS011;2826;51.354;9.588;2022-07-06T12:36:42;12.73;;;2.73;;
5608;SDS011;2826;51.354;9.588;2022-07-06T12:39:12;32.17;;;2.50;;
5608;SDS011;2826;51.354;9.588;2022-07-06T12:41:43;3.33;;;1.13;;
5608;SDS011;2826;51.354;9.588;2022-07-06T12:44:12;6.20;;;1.30;;
5608;SDS011;2826;51.354;9.588;2022-07-06T12:46:40;1.97;;;1.10;;
5608;SDS011;2826;51.354;9.588;2022-07-06T12:49:12;3.07;;;1.20;;
5608;SDS011;2826;51.354;9.588;2022-07-06T12:51:53;4.37;;;1.20;;
5608;SDS011;2826;51.354;9.588;2022-07-06T12:54:24;7.83;;;2.17;;
5608;SDS011;2826;51.354;9.588;2022-07-06T12:56:55;1.87;;;1.43;;
5608;SDS011;2826;51.354;9.588;2022-07-06T12:59:26;9.63;;;1.20;;
5608;SDS011;2826;51.354;9.588;2022-07-06T13:01:53;4.57;;;1.13;;
5608;SDS011;2826;51.354;9.588;2022-07-06T13:04:22;5.20;;;1.20;;
5608;SDS011;2826;51.354;9.588;2022-07-06T13:06:49;5.40;;;1.33;;
5608;SDS011;2826;51.354;9.588;2022-07-06T13:09:16;1.27;;;1.10;;
5608;SDS011;2826;51.354;9.588;2022-07-06T13:11:45;10.03;;;1.20;;
5608;SDS011;2826;51.354;9.588;2022-07-06T13:14:13;4.33;;;1.00;;
5608;SDS011;2826;51.354;9.588;2022-07-06T13:16:40;12.93;;;1.30;;
5608;SDS011;2826;51.354;9.588;2022-07-06T13:19:07;3.53;;;1.10;;
5608;SDS011;2826;51.354;9.588;2022-07-06T13:21:34;1.30;;;1.10;;
5608;SDS011;2826;51.354;9.588;2022-07-06T13:24:01;4.40;;;1.17;;
5608;SDS011;2826;51.354;9.588;2022-07-06T13:26:28;9.20;;;1.20;;
5608;SDS011;2826;51.354;9.588;2022-07-06T13:29:00;1.50;;;1.10;;
5608;SDS011;2826;51.354;9.588;2022-07-06T13:31:27;2.23;;;1.07;;
5608;SDS011;2826;51.354;9.588;2022-07-06T13:33:54;4.80;;;1.20;;
5608;SDS011;2826;51.354;9.588;2022-07-06T13:36:21;2.90;;;1.10;;
5608;SDS011;2826;51.354;9.588;2022-07-06T13:38:48;3.53;;;1.10;;
5608;SDS011;2826;51.354;9.588;2022-07-06T13:41:15;2.30;;;1.10;;
5608;SDS011;2826;51.354;9.588;2022-07-06T13:43:42;1.63;;;1.00;;
5608;SDS011;2826;51.354;9.588;2022-07-06T13:46:10;1.83;;;1.03;;
5608;SDS011;2826;51.354;9.588;2022-07-06T13:48:37;2.60;;;1.10;;
5608;SDS011;2826;51.354;9.588;2022-07-06T13:51:04;4.97;;;1.50;;
5608;SDS011;2826;51.354;9.588;2022-07-06T13:53:30;4.93;;;1.30;;
5608;SDS011;2826;51.354;9.588;2022-07-06T13:55:57;4.03;;;1.67;;
5608;SDS011;2826;51.354;9.588;2022-07-06T13:58:25;6.17;;;1.07;;
5608;SDS011;2826;51.354;9.588;2022-07-06T14:00:52;1.60;;;1.10;;
5608;SDS011;2826;51.354;9.588;2022-07-06T14:03:20;2.10;;;1.23;;
5608;SDS011;2826;51.354;9.588;2022-07-06T14:05:53;7.27;;;1.10;;
5608;SDS011;2826;51.354;9.588;2022-07-06T14:08:20;1.43;;;1.20;;
5608;SDS011;2826;51.354;9.588;2022-07-06T14:10:46;10.33;;;1.67;;
5608;SDS011;2826;51.354;9.588;2022-07-06T14:13:13;11.10;;;1.40;;
5608;SDS011;2826;51.354;9.588;2022-07-06T14:15:40;3.97;;;1.57;;
5608;SDS011;2826;51.354;9.588;2022-07-06T14:18:06;3.40;;;1.10;;
5608;SDS011;2826;51.354;9.588;2022-07-06T14:20:35;9.70;;;1.70;;
5608;SDS011;2826;51.354;9.588;2022-07-06T14:23:01;1.87;;;1.10;;
5608;SDS011;2826;51.354;9.588;2022-07-06T14:25:28;5.57;;;1.20;;
5608;SDS011;2826;51.354;9.588;2022-07-06T14:27:55;3.23;;;1.00;;
5608;SDS011;2826;51.354;9.588;2022-07-06T14:30:22;6.53;;;1.10;;
5608;SDS011;2826;51.354;9.588;2022-07-06T14:32:49;2.20;;;1.20;;
5608;SDS011;2826;51.354;9.588;2022-07-06T14:35:16;2.03;;;1.00;;
5608;SDS011;2826;51.354;9.588;2022-07-06T14:37:44;4.70;;;1.10;;
5608;SDS011;2826;51.354;9.588;2022-07-06T14:40:11;5.23;;;1.37;;
5608;SDS011;2826;51.354;9.588;2022-07-06T14:42:38;4.80;;;1.10;;
5608;SDS011;2826;51.354;9.588;2022-07-06T14:45:05;4.03;;;1.20;;
5608;SDS011;2826;51.354;9.588;2022-07-06T14:47:32;2.93;;;1.00;;
5608;SDS011;2826;51.354;9.588;2022-07-06T14:50:02;4.10;;;1.50;;
5608;SDS011;2826;51.354;9.588;2022-07-06T14:52:29;1.93;;;1.57;;
5608;SDS011;2826;51.354;9.588;2022-07-06T14:54:57;4.00;;;1.23;;
5608;SDS011;2826;51.354;9.588;2022-07-06T14:57:25;2.83;;;1.03;;
5608;SDS011;2826;51.354;9.588;2022-07-06T14:59:51;11.13;;;1.00;;
5608;SDS011;2826;51.354;9.588;2022-07-06T15:02:18;2.70;;;1.17;;
5608;SDS011;2826;51.354;9.588;2022-07-06T15:04:45;3.07;;;1.00;;
5608;SDS011;2826;51.354;9.588;2022-07-06T15:07:12;5.63;;;1.20;;
5608;SDS011;2826;51.354;9.588;2022-07-06T15:09:39;3.60;;;1.07;;
5608;SDS011;2826;51.354;9.588;2022-07-06T15:12:08;5.33;;;1.37;;
5608;SDS011;2826;51.354;9.588;2022-07-06T15:14:35;6.67;;;1.50;;
5608;SDS011;2826;51.354;9.588;2022-07-06T15:17:02;6.57;;;0.90;;
5608;SDS011;2826;51.354;9.588;2022-07-06T15:19:29;3.43;;;1.10;;